Time;durP1;ratioP1;P1;durP2;ratioP2;P2;SDS_P1;SDS_P2;PMS_P1;PMS_P2;Temp;Humidity;BMP_temperature;BMP_pressure;BME280_temperature;BME280_humidity;BME280_pressure;Samples;Min_cycle;Max_cycle;Signal;HPM_P1;HPM_P2
2022/09/27 00:04:03;;;;;;;3.97;2.13;;;;;;;;;;10359772;28;20073;-57
2022/09/27 00:09:04;;;;;;;5.15;2.38;;;;;;;;;;10363930;28;20496;-60
2022/09/27 00:14:06;;;;;;;5.45;1.90;;;;;;;;;;10367241;28;20045;-57
2022/09/27 00:19:12;;;;;;;6.13;1.95;;;;;;;;;;10354510;28;20028;-58
2022/09/27 00:24:16;;;;;;;2.35;2.03;;;;;;;;;;10360628;28;20084;-59
2022/09/27 00:29:18;;;;;;;10.13;2.22;;;;;;;;;;10357553;28;20037;-58
2022/09/27 00:34:22;;;;;;;3.88;2.10;;;;;;;;;;10372708;28;20037;-63
2022/09/27 00:39:23;;;;;;;3.28;1.90;;;;;;;;;;10361428;28;20093;-56
2022/09/27 00:44:23;;;;;;;3.33;1.73;;;;;;;;;;10358949;28;20029;-58
2022/09/27 00:49:39;;;;;;;6.68;2.10;;;;;;;;;;10357565;28;20394;-57
2022/09/27 00:54:45;;;;;;;3.15;2.05;;;;;;;;;;10358936;28;20049;-63
2022/09/27 01:00:15;;;;;;;2.50;1.73;;;;;;;;;;10360973;28;20034;-63
2022/09/27 01:05:19;;;;;;;2.25;1.95;;;;;;;;;;10361740;28;20035;-65
2022/09/27 01:10:21;;;;;;;4.15;2.00;;;;;;;;;;10362297;28;20045;-64
2022/09/27 01:16:01;;;;;;;2.00;1.80;;;;;;;;;;10362640;28;20050;-65
2022/09/27 01:21:48;;;;;;;1.60;1.50;;;;;;;;;;10336065;28;20045;-64
2022/09/27 01:27:25;;;;;;;3.92;2.08;;;;;;;;;;10368316;28;20042;-58
2022/09/27 01:32:48;;;;;;;2.17;1.90;;;;;;;;;;10356303;28;20041;-58
2022/09/27 01:38:19;;;;;;;4.22;1.70;;;;;;;;;;10357113;28;20489;-65
2022/09/27 01:43:39;;;;;;;2.47;1.52;;;;;;;;;;10358062;28;20022;-63
2022/09/27 01:48:47;;;;;;;2.10;1.67;;;;;;;;;;10355159;28;20021;-66
2022/09/27 01:53:52;;;;;;;1.77;1.50;;;;;;;;;;10365261;28;20037;-65
2022/09/27 01:59:28;;;;;;;1.83;1.42;;;;;;;;;;10358273;28;20088;-63
2022/09/27 02:04:32;;;;;;;3.08;1.85;;;;;;;;;;10359367;28;20037;-59
2022/09/27 02:09:52;;;;;;;4.53;1.67;;;;;;;;;;10359928;28;20449;-62
2022/09/27 02:15:02;;;;;;;3.65;1.65;;;;;;;;;;10362465;28;20045;-58
2022/09/27 02:20:24;;;;;;;3.25;1.85;;;;;;;;;;10349876;28;20034;-58
2022/09/27 02:26:08;;;;;;;3.20;1.80;;;;;;;;;;10380436;28;20556;-58
2022/09/27 02:31:09;;;;;;;2.35;1.98;;;;;;;;;;10325214;28;20038;-57
2022/09/27 02:36:10;;;;;;;1.67;1.40;;;;;;;;;;10368147;28;20030;-57
2022/09/27 02:41:17;;;;;;;4.80;1.90;;;;;;;;;;10350274;28;20109;-57
2022/09/27 02:47:06;;;;;;;2.78;1.90;;;;;;;;;;10355325;28;20037;-65
2022/09/27 02:52:28;;;;;;;2.25;1.48;;;;;;;;;;10353328;28;20048;-65
2022/09/27 02:57:49;;;;;;;2.30;1.75;;;;;;;;;;10357590;28;20031;-65
2022/09/27 03:03:01;;;;;;;3.60;1.73;;;;;;;;;;10364396;28;20381;-65
2022/09/27 03:08:03;;;;;;;2.90;1.67;;;;;;;;;;10363868;28;20087;-58
2022/09/27 03:13:04;;;;;;;1.85;1.60;;;;;;;;;;10335917;28;20026;-57
2022/09/27 03:18:05;;;;;;;2.78;1.40;;;;;;;;;;10357795;28;20034;-58
2022/09/27 03:23:05;;;;;;;2.17;1.40;;;;;;;;;;10366543;28;20049;-58
2022/09/27 03:28:07;;;;;;;2.05;1.50;;;;;;;;;;10366953;28;20030;-58
2022/09/27 03:33:08;;;;;;;5.20;1.80;;;;;;;;;;10366582;28;20022;-57
2022/09/27 03:38:09;;;;;;;2.20;1.30;;;;;;;;;;10366091;28;20030;-62
2022/09/27 03:43:10;;;;;;;3.95;1.80;;;;;;;;;;10366201;28;20173;-58
2022/09/27 03:48:11;;;;;;;2.75;1.40;;;;;;;;;;10345765;28;20042;-59
2022/09/27 03:53:11;;;;;;;1.60;1.42;;;;;;;;;;10374580;28;20026;-58
2022/09/27 03:58:12;;;;;;;1.30;1.20;;;;;;;;;;10372474;28;20034;-58
2022/09/27 04:03:13;;;;;;;1.75;1.42;;;;;;;;;;10371756;28;20053;-57
2022/09/27 04:08:13;;;;;;;1.30;1.20;;;;;;;;;;10373343;28;20109;-64
2022/09/27 04:13:14;;;;;;;2.13;1.25;;;;;;;;;;10373190;28;20104;-63
2022/09/27 04:18:15;;;;;;;1.40;1.30;;;;;;;;;;10370270;28;20064;-65
2022/09/27 04:23:15;;;;;;;1.58;1.25;;;;;;;;;;10370261;28;20087;-59
2022/09/27 04:28:16;;;;;;;1.25;1.10;;;;;;;;;;10371561;28;20030;-59
2022/09/27 04:33:16;;;;;;;1.60;1.50;;;;;;;;;;10357900;28;20038;-58
2022/09/27 04:38:21;;;;;;;4.13;1.33;;;;;;;;;;10372315;28;20080;-56
2022/09/27 04:43:22;;;;;;;1.45;1.20;;;;;;;;;;10358928;28;20037;-58
2022/09/27 04:48:22;;;;;;;1.42;1.08;;;;;;;;;;10357322;28;20046;-56
2022/09/27 04:53:23;;;;;;;1.45;1.35;;;;;;;;;;10372370;28;20033;-58
2022/09/27 04:58:24;;;;;;;1.25;1.13;;;;;;;;;;10363700;28;20032;-58
2022/09/27 05:03:25;;;;;;;2.25;1.30;;;;;;;;;;10358712;28;20026;-55
2022/09/27 05:08:26;;;;;;;2.25;1.40;;;;;;;;;;10369134;28;20034;-57
2022/09/27 05:13:27;;;;;;;3.03;1.20;;;;;;;;;;10370592;28;20129;-57
2022/09/27 05:18:27;;;;;;;1.20;1.10;;;;;;;;;;10344691;28;20108;-58
2022/09/27 05:23:28;;;;;;;2.25;1.42;;;;;;;;;;10342643;28;20034;-58
2022/09/27 05:28:30;;;;;;;1.25;1.17;;;;;;;;;;10355730;28;20042;-58
2022/09/27 05:33:33;;;;;;;1.45;1.02;;;;;;;;;;10369757;28;20072;-58
2022/09/27 05:38:34;;;;;;;1.40;1.30;;;;;;;;;;10353940;28;20521;-58
2022/09/27 05:43:35;;;;;;;2.15;1.23;;;;;;;;;;10352703;28;20053;-58
2022/09/27 05:48:36;;;;;;;2.38;1.15;;;;;;;;;;10368370;28;20029;-58
2022/09/27 05:53:37;;;;;;;3.90;1.23;;;;;;;;;;10368860;28;20104;-57
2022/09/27 05:58:37;;;;;;;1.38;1.23;;;;;;;;;;10367925;28;20029;-57
2022/09/27 06:03:39;;;;;;;5.80;1.73;;;;;;;;;;10354481;28;20034;-57
2022/09/27 06:08:40;;;;;;;2.17;1.23;;;;;;;;;;10368864;28;20030;-61
2022/09/27 06:13:41;;;;;;;2.13;1.25;;;;;;;;;;10364890;28;20037;-57
2022/09/27 06:18:42;;;;;;;4.28;1.58;;;;;;;;;;10367886;28;20405;-59
2022/09/27 06:23:42;;;;;;;3.58;1.45;;;;;;;;;;10357741;28;20428;-60
2022/09/27 06:28:44;;;;;;;6.07;1.80;;;;;;;;;;10367207;28;20087;-58
2022/09/27 06:33:44;;;;;;;10.90;1.30;;;;;;;;;;10366567;28;20493;-60
2022/09/27 06:38:47;;;;;;;3.13;1.45;;;;;;;;;;10365832;28;20037;-59
2022/09/27 06:43:48;;;;;;;2.33;1.40;;;;;;;;;;10367817;28;20076;-58
2022/09/27 06:48:48;;;;;;;4.05;1.27;;;;;;;;;;10351568;28;20033;-61
2022/09/27 06:53:49;;;;;;;8.13;1.50;;;;;;;;;;10357586;28;20033;-67
2022/09/27 07:04:11;;;;;;;2.03;1.30;;;;;;;;;;10364244;28;20037;-59
2022/09/27 07:09:12;;;;;;;4.05;1.38;;;;;;;;;;10367360;28;20034;-59
2022/09/27 07:14:12;;;;;;;2.13;1.40;;;;;;;;;;10358316;28;20050;-58
2022/09/27 07:19:14;;;;;;;8.13;1.40;;;;;;;;;;10358906;28;20071;-59
2022/09/27 07:24:14;;;;;;;3.53;1.20;;;;;;;;;;10371709;28;20037;-58
2022/09/27 07:29:15;;;;;;;2.75;1.25;;;;;;;;;;10374195;28;20034;-61
2022/09/27 07:34:17;;;;;;;2.28;1.42;;;;;;;;;;10374617;28;20112;-57
2022/09/27 07:39:18;;;;;;;1.42;0.98;;;;;;;;;;10373517;28;20112;-56
2022/09/27 07:44:18;;;;;;;2.92;1.15;;;;;;;;;;10373348;28;20034;-66
2022/09/27 07:49:19;;;;;;;2.85;1.38;;;;;;;;;;10365055;28;20034;-62
2022/09/27 07:54:19;;;;;;;2.03;1.20;;;;;;;;;;10366583;28;20030;-56
2022/09/27 07:59:20;;;;;;;2.10;1.00;;;;;;;;;;10371575;28;20042;-58
2022/09/27 08:04:21;;;;;;;1.13;1.02;;;;;;;;;;10370048;28;20104;-56
2022/09/27 08:09:21;;;;;;;3.50;1.35;;;;;;;;;;10373120;28;20056;-57
2022/09/27 08:14:23;;;;;;;1.30;1.00;;;;;;;;;;10371783;28;20038;-58
2022/09/27 08:19:24;;;;;;;1.55;1.10;;;;;;;;;;10372096;28;20037;-60
2022/09/27 08:24:24;;;;;;;1.15;1.00;;;;;;;;;;10369408;28;20026;-67
2022/09/27 08:29:25;;;;;;;2.08;1.00;;;;;;;;;;10361618;28;20030;-60
2022/09/27 08:34:28;;;;;;;2.38;1.20;;;;;;;;;;10357580;28;20080;-66
2022/09/27 08:39:28;;;;;;;0.85;0.80;;;;;;;;;;10357898;28;20087;-60
2022/09/27 08:44:53;;;;;;;0.95;0.80;;;;;;;;;;10356407;28;20444;-58
2022/09/27 08:49:58;;;;;;;3.22;1.42;;;;;;;;;;10364431;28;20058;-66
2022/09/27 08:55:08;;;;;;;1.42;1.05;;;;;;;;;;10364151;28;20037;-58
2022/09/27 09:00:13;;;;;;;2.80;1.20;;;;;;;;;;10385428;28;20029;-58
2022/09/27 09:05:33;;;;;;;2.95;0.90;;;;;;;;;;10364851;28;20168;-63
2022/09/27 09:16:37;;;;;;;2.00;1.10;;;;;;;;;;10370317;28;20045;-58
2022/09/27 09:22:09;;;;;;;7.25;1.15;;;;;;;;;;10359550;28;20036;-58
2022/09/27 09:27:46;;;;;;;2.13;0.90;;;;;;;;;;10364647;28;20433;-58
2022/09/27 09:33:04;;;;;;;1.45;0.77;;;;;;;;;;10360037;28;20485;-64
2022/09/27 09:38:14;;;;;;;1.08;1.00;;;;;;;;;;10369816;28;20026;-56
2022/09/27 09:43:32;;;;;;;3.40;1.20;;;;;;;;;;10367005;28;20034;-58
2022/09/27 09:48:47;;;;;;;3.28;1.10;;;;;;;;;;10380570;28;20022;-64
2022/09/27 09:54:02;;;;;;;2.15;1.27;;;;;;;;;;10368070;28;20037;-57
2022/09/27 09:59:27;;;;;;;1.75;1.10;;;;;;;;;;10363238;28;20036;-66
2022/09/27 10:04:28;;;;;;;1.40;0.95;;;;;;;;;;10381036;28;20033;-58
2022/09/27 10:09:29;;;;;;;5.78;1.05;;;;;;;;;;10360862;28;20021;-55
2022/09/27 10:14:30;;;;;;;1.42;1.00;;;;;;;;;;10366141;28;20050;-57
2022/09/27 10:19:36;;;;;;;2.13;1.10;;;;;;;;;;10364849;28;20461;-57
2022/09/27 10:25:02;;;;;;;1.05;0.95;;;;;;;;;;10365946;28;20037;-55
2022/09/27 10:30:03;;;;;;;1.27;1.00;;;;;;;;;;10369714;28;20049;-57
2022/09/27 10:35:34;;;;;;;1.70;0.88;;;;;;;;;;10356452;28;20038;-56
2022/09/27 10:40:34;;;;;;;2.35;0.98;;;;;;;;;;10340532;28;20044;-57
2022/09/27 10:45:35;;;;;;;2.25;1.13;;;;;;;;;;10353879;28;20380;-56
2022/09/27 10:50:40;;;;;;;4.80;1.10;;;;;;;;;;10354636;28;20069;-58
2022/09/27 10:55:42;;;;;;;0.98;0.98;;;;;;;;;;10345064;28;20446;-57
2022/09/27 11:00:43;;;;;;;1.65;0.90;;;;;;;;;;10340778;28;20121;-56
2022/09/27 11:05:43;;;;;;;0.95;0.93;;;;;;;;;;10362995;28;20060;-58
2022/09/27 11:11:12;;;;;;;1.02;0.88;;;;;;;;;;10361380;28;20061;-57
2022/09/27 11:16:30;;;;;;;;;;;;;;;;;;10352882;28;20103;-57
2022/09/27 11:22:34;;;;;;;1.10;0.95;;;;;;;;;;10351753;28;19913;-57
2022/09/27 11:28:05;;;;;;;1.00;1.00;;;;;;;;;;10354613;28;20034;-62
2022/09/27 11:33:50;;;;;;;2.78;0.90;;;;;;;;;;10362031;28;20025;-56
2022/09/27 11:39:01;;;;;;;1.05;0.80;;;;;;;;;;10330709;28;20077;-57
2022/09/27 11:44:46;;;;;;;2.45;0.93;;;;;;;;;;10358775;28;20023;-58
2022/09/27 11:50:11;;;;;;;1.70;1.05;;;;;;;;;;10337141;28;20192;-56
2022/09/27 11:55:17;;;;;;;0.80;0.80;;;;;;;;;;10379478;28;20061;-57
2022/09/27 12:00:23;;;;;;;1.20;0.80;;;;;;;;;;10350925;28;20128;-59
2022/09/27 12:05:55;;;;;;;1.05;0.90;;;;;;;;;;10364743;28;20392;-57
2022/09/27 12:11:29;;;;;;;1.40;1.00;;;;;;;;;;10361865;28;20103;-58
2022/09/27 12:16:31;;;;;;;5.85;1.20;;;;;;;;;;10362276;28;20042;-58
2022/09/27 12:21:32;;;;;;;1.42;0.90;;;;;;;;;;10368298;28;20038;-59
2022/09/27 12:26:42;;;;;;;2.03;1.02;;;;;;;;;;10372877;28;20022;-57
2022/09/27 12:32:01;;;;;;;6.05;1.40;;;;;;;;;;10369079;28;20039;-58
2022/09/27 12:37:17;;;;;;;7.75;1.08;;;;;;;;;;10367399;28;20058;-62
2022/09/27 12:42:43;;;;;;;1.10;0.80;;;;;;;;;;10354929;28;20088;-57
2022/09/27 12:48:19;;;;;;;0.90;0.90;;;;;;;;;;10362983;28;20030;-64
2022/09/27 12:53:57;;;;;;;3.83;1.10;;;;;;;;;;10370532;28;20425;-62
2022/09/27 12:59:16;;;;;;;;;;;;;;;;;;10356280;28;20068;-65
2022/09/27 13:04:39;;;;;;;1.85;1.00;;;;;;;;;;10369023;28;19932;-57
2022/09/27 13:10:26;;;;;;;2.80;0.88;;;;;;;;;;10368707;28;20496;-59
2022/09/27 13:15:38;;;;;;;6.25;0.93;;;;;;;;;;10352782;28;20053;-61
2022/09/27 13:20:45;;;;;;;1.98;1.25;;;;;;;;;;10367048;28;20038;-66
2022/09/27 13:25:59;;;;;;;1.92;1.17;;;;;;;;;;10358845;28;20034;-67
2022/09/27 13:31:08;;;;;;;1.65;1.00;;;;;;;;;;10370222;28;20034;-59
2022/09/27 13:36:25;;;;;;;2.92;1.52;;;;;;;;;;10346136;28;20401;-58
2022/09/27 13:41:50;;;;;;;3.35;1.02;;;;;;;;;;10368952;28;20455;-63
2022/09/27 13:47:37;;;;;;;4.60;1.30;;;;;;;;;;10357854;28;20034;-58
2022/09/27 13:52:42;;;;;;;3.35;1.10;;;;;;;;;;10368497;28;20092;-64
2022/09/27 13:57:58;;;;;;;1.73;1.30;;;;;;;;;;10375744;28;20540;-58
2022/09/27 14:03:06;;;;;;;2.15;1.23;;;;;;;;;;10368651;28;20018;-65
2022/09/27 14:08:43;;;;;;;2.97;1.55;;;;;;;;;;10369168;28;20029;-59
2022/09/27 14:13:45;;;;;;;3.55;1.65;;;;;;;;;;10345108;28;20125;-66
2022/09/27 14:18:57;;;;;;;4.20;1.80;;;;;;;;;;10366976;28;20057;-56
2022/09/27 14:24:20;;;;;;;4.72;1.60;;;;;;;;;;10368174;28;20041;-57
2022/09/27 14:29:21;;;;;;;7.28;1.25;;;;;;;;;;10363038;28;20172;-62
2022/09/27 14:34:22;;;;;;;5.20;1.40;;;;;;;;;;10364937;28;20045;-57
2022/09/27 14:39:32;;;;;;;3.15;1.73;;;;;;;;;;10365874;28;20037;-57
2022/09/27 14:44:34;;;;;;;5.30;1.70;;;;;;;;;;10366014;28;20040;-59
2022/09/27 14:49:35;;;;;;;4.78;1.85;;;;;;;;;;10366535;28;20088;-55
2022/09/27 14:54:36;;;;;;;2.38;1.40;;;;;;;;;;10366678;28;20022;-64
2022/09/27 14:59:43;;;;;;;5.55;1.85;;;;;;;;;;10365601;28;20177;-63
2022/09/27 15:04:46;;;;;;;7.57;1.67;;;;;;;;;;10366615;28;20041;-65
2022/09/27 15:09:48;;;;;;;2.47;1.50;;;;;;;;;;10364196;28;20037;-66
2022/09/27 15:14:49;;;;;;;2.70;1.50;;;;;;;;;;10365481;28;20042;-58
2022/09/27 15:20:17;;;;;;;3.58;1.70;;;;;;;;;;10351449;28;20021;-57
2022/09/27 15:25:33;;;;;;;5.20;1.65;;;;;;;;;;10363007;28;20031;-58
2022/09/27 15:30:38;;;;;;;3.30;1.40;;;;;;;;;;10362920;28;20493;-58
2022/09/27 15:35:48;;;;;;;6.70;1.70;;;;;;;;;;10357817;28;20364;-64
2022/09/27 15:40:48;;;;;;;2.92;1.50;;;;;;;;;;10350003;28;20037;-57
2022/09/27 15:45:51;;;;;;;4.40;1.60;;;;;;;;;;10358679;28;20037;-60
2022/09/27 15:50:52;;;;;;;7.15;1.50;;;;;;;;;;10369919;28;20077;-61
2022/09/27 15:55:53;;;;;;;4.25;1.48;;;;;;;;;;10370948;28;20026;-58
2022/09/27 16:00:58;;;;;;;4.50;1.67;;;;;;;;;;10382137;28;20034;-58
2022/09/27 16:06:02;;;;;;;2.13;1.33;;;;;;;;;;10367584;28;20044;-58
2022/09/27 16:11:04;;;;;;;2.92;1.45;;;;;;;;;;10361606;28;20497;-57
2022/09/27 16:16:05;;;;;;;3.47;1.80;;;;;;;;;;10365430;28;20054;-57
2022/09/27 16:21:05;;;;;;;3.42;1.58;;;;;;;;;;10354404;28;20030;-56
2022/09/27 16:26:06;;;;;;;7.88;1.63;;;;;;;;;;10366034;28;20022;-57
2022/09/27 16:31:10;;;;;;;1.77;1.35;;;;;;;;;;10361007;28;20033;-57
2022/09/27 16:36:15;;;;;;;2.53;1.50;;;;;;;;;;10372773;28;20397;-57
2022/09/27 16:41:16;;;;;;;1.58;1.15;;;;;;;;;;10366665;28;20096;-58
2022/09/27 16:46:18;;;;;;;2.47;1.50;;;;;;;;;;10366016;28;20474;-57
2022/09/27 16:56:39;;;;;;;2.60;1.30;;;;;;;;;;10384801;28;20026;-57
2022/09/27 17:01:40;;;;;;;2.83;1.45;;;;;;;;;;10371538;28;20038;-57
2022/09/27 17:06:40;;;;;;;1.92;1.60;;;;;;;;;;10371439;28;20033;-57
2022/09/27 17:11:41;;;;;;;2.97;1.60;;;;;;;;;;10376502;23;20007;-56
2022/09/27 17:16:46;;;;;;;2.28;1.10;;;;;;;;;;10411637;28;20053;-59
2022/09/27 17:21:47;;;;;;;3.30;1.30;;;;;;;;;;10394896;28;20029;-55
2022/09/27 17:26:47;;;;;;;1.73;1.38;;;;;;;;;;10366409;28;20216;-59
2022/09/27 17:31:48;;;;;;;2.85;1.50;;;;;;;;;;10368587;28;20366;-56
2022/09/27 17:36:50;;;;;;;3.10;1.48;;;;;;;;;;10361830;28;20026;-57
2022/09/27 17:41:51;;;;;;;3.05;1.48;;;;;;;;;;10369131;28;20487;-52
2022/09/27 17:50:23;;;;;;;2.03;1.38;;;;;;;;;;10369810;28;20022;-60
2022/09/27 17:52:12;;;;;;;4.20;1.42;;;;;;;;;;10359878;28;20033;-61
2022/09/27 17:57:13;;;;;;;2.58;1.60;;;;;;;;;;10361298;28;20029;-52
2022/09/27 18:02:13;;;;;;;5.20;1.80;;;;;;;;;;10361937;28;20216;-55
2022/09/27 18:07:14;;;;;;;2.92;1.50;;;;;;;;;;10364482;28;20032;-52
2022/09/27 18:12:15;;;;;;;6.85;2.53;;;;;;;;;;10360961;28;20081;-52
2022/09/27 18:17:17;;;;;;;8.25;3.13;;;;;;;;;;10365513;28;20033;-54
2022/09/27 18:22:17;;;;;;;5.97;3.33;;;;;;;;;;10361697;28;20018;-52
2022/09/27 18:27:18;;;;;;;9.73;4.28;;;;;;;;;;10366344;28;20096;-53
2022/09/27 18:32:19;;;;;;;14.52;4.10;;;;;;;;;;10367038;28;20280;-50
2022/09/27 18:37:20;;;;;;;8.60;3.60;;;;;;;;;;10366833;28;20308;-52
2022/09/27 18:42:20;;;;;;;9.40;3.33;;;;;;;;;;10365735;28;20038;-52
2022/09/27 18:47:22;;;;;;;11.35;4.05;;;;;;;;;;10368533;28;20493;-52
2022/09/27 18:52:22;;;;;;;12.93;4.07;;;;;;;;;;10364797;28;20448;-51
2022/09/27 18:57:24;;;;;;;8.52;3.38;;;;;;;;;;10361967;28;20041;-49
2022/09/27 19:02:25;;;;;;;7.10;3.08;;;;;;;;;;10365050;28;20046;-50
2022/09/27 19:07:25;;;;;;;9.50;3.63;;;;;;;;;;10366669;28;20022;-50
2022/09/27 19:12:26;;;;;;;8.68;3.38;;;;;;;;;;10363572;28;20037;-49
2022/09/27 19:17:26;;;;;;;8.43;2.85;;;;;;;;;;10361499;28;20033;-53
2022/09/27 19:22:28;;;;;;;8.10;2.50;;;;;;;;;;10364691;28;20041;-49
2022/09/27 19:27:30;;;;;;;6.10;2.30;;;;;;;;;;10366058;28;20037;-50
2022/09/27 19:32:30;;;;;;;11.30;3.00;;;;;;;;;;10359883;28;20088;-50
2022/09/27 19:37:32;;;;;;;8.90;2.85;;;;;;;;;;10366352;28;20034;-50
2022/09/27 19:42:32;;;;;;;11.27;2.63;;;;;;;;;;10366600;28;20345;-49
2022/09/27 19:47:33;;;;;;;7.00;2.50;;;;;;;;;;10361557;28;20265;-49
2022/09/27 19:52:34;;;;;;;9.85;2.53;;;;;;;;;;10366169;28;20038;-49
2022/09/27 19:57:34;;;;;;;5.88;2.03;;;;;;;;;;10361333;28;20159;-49
2022/09/27 20:02:35;;;;;;;7.07;2.42;;;;;;;;;;10362462;28;20060;-50
2022/09/27 20:07:36;;;;;;;4.85;1.80;;;;;;;;;;10366010;28;20080;-59
2022/09/27 20:12:36;;;;;;;6.35;2.00;;;;;;;;;;10365407;28;20053;-55
2022/09/27 20:17:37;;;;;;;7.63;1.77;;;;;;;;;;10355810;28;20312;-53
2022/09/27 20:22:38;;;;;;;6.60;2.05;;;;;;;;;;10366265;28;20025;-50
2022/09/27 20:27:39;;;;;;;7.47;2.42;;;;;;;;;;10352928;28;20065;-52
2022/09/27 20:32:39;;;;;;;9.15;2.08;;;;;;;;;;10372973;28;20477;-55
2022/09/27 20:37:40;;;;;;;4.03;1.67;;;;;;;;;;10373298;28;20034;-50
2022/09/27 20:42:40;;;;;;;3.75;1.90;;;;;;;;;;10363388;28;20034;-52
2022/09/27 20:47:41;;;;;;;8.60;1.80;;;;;;;;;;10372224;28;20072;-56
2022/09/27 20:52:42;;;;;;;3.63;1.70;;;;;;;;;;10370267;28;20042;-51
2022/09/27 20:57:42;;;;;;;5.78;1.77;;;;;;;;;;10372766;28;20033;-49
2022/09/27 21:02:43;;;;;;;4.35;1.50;;;;;;;;;;10372077;28;20026;-53
2022/09/27 21:07:44;;;;;;;3.92;1.40;;;;;;;;;;10371622;28;20033;-49
2022/09/27 21:12:44;;;;;;;3.97;1.73;;;;;;;;;;10370761;28;20057;-49
2022/09/27 21:17:45;;;;;;;3.65;1.80;;;;;;;;;;10371246;28;20030;-49
2022/09/27 21:22:45;;;;;;;2.78;1.42;;;;;;;;;;10369533;28;20037;-50
2022/09/27 21:27:51;;;;;;;2.85;1.58;;;;;;;;;;10367301;28;20262;-51
2022/09/27 21:32:53;;;;;;;4.85;2.03;;;;;;;;;;10370100;28;20034;-51
2022/09/27 21:37:56;;;;;;;6.28;2.05;;;;;;;;;;10370816;28;20026;-53
2022/09/27 21:42:56;;;;;;;3.20;1.67;;;;;;;;;;10369530;28;20034;-48
2022/09/27 21:47:58;;;;;;;9.82;2.05;;;;;;;;;;10369079;28;20042;-49
2022/09/27 21:52:58;;;;;;;12.02;2.95;;;;;;;;;;10363395;28;20052;-51
2022/09/27 21:57:59;;;;;;;4.43;1.83;;;;;;;;;;10364335;28;20022;-51
2022/09/27 22:03:00;;;;;;;9.05;1.90;;;;;;;;;;10363803;28;20037;-50
2022/09/27 22:08:00;;;;;;;8.50;1.52;;;;;;;;;;10363608;28;20018;-51
2022/09/27 22:13:01;;;;;;;7.30;1.73;;;;;;;;;;10362655;28;20033;-54
2022/09/27 22:18:02;;;;;;;5.30;1.48;;;;;;;;;;10368653;28;20038;-57
2022/09/27 22:23:03;;;;;;;5.10;1.38;;;;;;;;;;10363318;28;20062;-61
2022/09/27 22:28:03;;;;;;;4.30;1.85;;;;;;;;;;10359802;28;20026;-58
2022/09/27 22:33:04;;;;;;;8.80;2.88;;;;;;;;;;10362504;28;20033;-55
2022/09/27 22:38:04;;;;;;;4.53;1.20;;;;;;;;;;10359404;28;20508;-63
2022/09/27 22:43:05;;;;;;;4.82;1.40;;;;;;;;;;10356298;28;20512;-58
2022/09/27 22:48:05;;;;;;;5.50;1.83;;;;;;;;;;10362650;28;20473;-62
2022/09/27 22:53:06;;;;;;;5.13;1.48;;;;;;;;;;10362842;28;20034;-59
2022/09/27 22:58:08;;;;;;;2.90;1.65;;;;;;;;;;10365523;28;20045;-55
2022/09/27 23:03:08;;;;;;;2.58;1.27;;;;;;;;;;10365824;28;20041;-53
2022/09/27 23:08:09;;;;;;;5.28;1.50;;;;;;;;;;10360005;28;20080;-50
2022/09/27 23:13:09;;;;;;;7.13;1.55;;;;;;;;;;10363021;28;20041;-51
2022/09/27 23:18:10;;;;;;;4.25;1.55;;;;;;;;;;10366436;28;20065;-58
2022/09/27 23:23:13;;;;;;;2.88;1.30;;;;;;;;;;10364930;28;20519;-60
2022/09/27 23:28:14;;;;;;;2.22;1.40;;;;;;;;;;10360386;28;20392;-58
2022/09/27 23:33:15;;;;;;;2.92;1.55;;;;;;;;;;10365484;28;20049;-55
2022/09/27 23:38:16;;;;;;;4.78;1.23;;;;;;;;;;10354325;28;20022;-59
2022/09/27 23:43:16;;;;;;;2.85;1.30;;;;;;;;;;10351079;28;20038;-59
2022/09/27 23:48:17;;;;;;;2.97;1.33;;;;;;;;;;10365198;28;20401;-57
2022/09/27 23:53:21;;;;;;;3.75;1.40;;;;;;;;;;10365146;28;20409;-62
2022/09/27 23:58:22;;;;;;;3.28;1.33;;;;;;;;;;10366166;28;20045;-56
